Mlle Alexiane Lepage

Mlle Alexiane Lepage

Statistiques 2026

  • Courses courues : 39
  • Nb de victoires : 6
  • Nb de places : 16
  • Écart gagnant : -
  • Réussite à la gagne : 15%
  • Réussite à la place : 41%
Musique : 1m 2m 8m 6m Dm Dm 1m 2m 2m 6m 3m 6m 1m 8m 5m Dm 3m Dm
DateRangCatégorieAlloc.Dist.HippodromeChevalRed. KmSpé.
15/06/14 6 Mixte 14 000€ 2 975m Jallais Ustang du Layon Monté
20/06/14 6 Trot 14 000€ 2 225m Laval Bloody Sun de Suce 1'20"3 Monté
22/06/14 D Trot 15 000€ 2 600m La Roche Sur Yon Ukraine des Volos Monté
26/06/14 5 Trot 32 000€ 2 875m Vichy Rosetown 1'16"9 Monté
29/06/14 5 Mixte 15 000€ 2 625m La Roche Posay Ustang du Layon Monté
03/07/14 7 Trot 42 000€ 2 250m Enghien Soisy Speed Pacha 1'15"4 Monté lire

Après avoir figuré au sein du peloton, n'a pu se mêler à la lutte pour les accessits dans la phase finale.

04/07/14 D Trot 18 000€ 2 725m Pornichet La Baule Tact Vrie Monté
05/07/14 D Trot 22 000€ 3 000m Nantes Team Canbec Monté
06/07/14 5 Mixte 13 000€ 3 025m Combree Ustang du Layon Monté
08/07/14 4 Trot 20 000€ 2 775m Les Sables D'Olonne Texas du Juille 1'16"2 Monté lire

Longtemps en retrait, a su combler du terrain depuis le bout de la ligne opposée, terminant de bonne façon.

12/07/14 3 Trot 21 000€ 2 775m Les Sables D'Olonne Voyou du Lerre 1'19"8 Monté
13/07/14 2 Trot 15 000€ 2 475m Francheville Ustang du Layon Monté
14/07/14 D Trot 15 000€ 2 625m Chinon Uliette Jac Monté
15/07/14 9 Trot 26 000€ 2 750m Pornichet La Baule Speed Pacha 1'15"7 Monté
20/07/14 0 Trot 14 000€ 2 650m Saint Jean De Monts Una des Apres Monté
23/07/14 D Trot 15 000€ 2 150m Biarritz Uthan des Bordes Monté
24/07/14 4 Trot 18 000€ 2 650m La Rochelle Amour Royal 1'18"0 Monté
26/07/14 D Trot 25 000€ 2 975m Le Mans Speed Pacha Monté
27/07/14 4 Trot 12 000€ 2 575m Chateau Du Loir Ustang du Layon Monté
28/07/14 D Mixte 11 000€ 3 100m Plesse Voyou du Lerre Monté
30/07/14 D Trot 30 000€ 2 800m Les Sables D'Olonne Rosetown Monté
31/07/14 3 Trot 23 000€ 2 650m La Rochelle Speed Pacha Monté lire

Après avoir patienté en retrait, a progressé au bout de la ligne opposée, puis a su très bien soutenir son effort jusqu'au bout.

03/08/14 D Trot 11 000€ 2 750m La Ferte Vidame Viva du Leard Monté
04/08/14 4 Mixte 14 000€ 2 975m Dinan Venus d'Aunay Monté
05/08/14 3 Trot 23 000€ 2 625m La Rochelle Sapeur d'Arclais 1'16"4 Monté
06/08/14 1 Trot 13 000€ 2 775m Les Sables D'Olonne Voyou du Lerre 1'16"5 Monté
07/08/14 3 Trot 16 000€ 2 625m Montignac Ustang du Layon 1'27"2 Monté
08/08/14 2 Trot 20 000€ 2 475m Villereal Saphir d'Idole 1'16"5 Monté
13/08/14 D Trot 12 000€ 2 375m Dozule Beaute d'Asnois Monté
15/08/14 2 Trot 16 000€ 3 100m Vibraye Rami Prior Monté
16/08/14 D Trot 12 000€ 2 625m La Rochelle Vanda Monté
17/08/14 1 Trot 18 000€ 2 950m Mansle Ustang du Layon 1'16"6 Monté
18/08/14 3 Mixte 16 000€ 3 025m Rochefort Sur Loire Tossari Monté
19/08/14 4 Trot 13 000€ 2 100m Pornichet La Baule Bella Beconnaise 1'16"3 Monté
20/08/14 1 Trot 11 000€ 2 700m Plouescat Venus d'Aunay TNC Monté
21/08/14 1 Trot 17 000€ 2 600m Montignac Sephiro Flam 1'20"6 Monté
21/08/14 5 Trot 15 000€ 2 625m Montignac Urisso Tivoli 1'20"9 Attelé
22/08/14 D Trot 12 000€ 2 100m Pornichet La Baule Avantage Censerie Monté
24/08/14 D Trot 13 000€ 2 850m Carentan Vas Y Mon Kiki Monté
24/08/14 1 Trot 20 000€ 2 850m Carentan Ucayali de Tramon TNC Monté
26/08/14 D Trot 25 000€ 2 900m Laval Rosetown Monté
27/08/14 0 Trot 14 000€ 2 775m Les Sables D'Olonne Ustang du Layon Monté
31/08/14 3 Trot 15 000€ 2 725m Thouars Sephiro Flam Monté
02/09/14 5 Trot 18 000€ 2 875m Argentan Aristo Quetterie 1'20"4 Monté
06/09/14 3 Trot 10 000€ 2 225m Moulins La Marche Borsalino du Mont Monté
06/09/14 6 Trot 25 000€ 2 800m Moulins La Marche Ustang du Layon Monté
07/09/14 4 Trot 20 000€ 2 625m Villeneuve Sur Lot Sephiro Flam 1'19"4 Monté
09/09/14 9 Trot 22 000€ 2 600m Le Mont Saint Michel Vida du Vivier 1'17"3 Attelé
11/09/14 8 Trot 22 000€ 2 800m Les Sables D'Olonne Rami Prior 1'17"0 Monté
13/09/14 6 Trot 18 000€ 2 875m Bagnoles De L'Orne Triomphe Jenilou Monté